Time;durP1;ratioP1;P1;durP2;ratioP2;P2;SDS_P1;SDS_P2;PMS_P1;PMS_P2;Temp;Humidity;BMP_temperature;BMP_pressure;BME280_temperature;BME280_humidity;BME280_pressure;Samples;Min_cycle;Max_cycle;Signal;HPM_P1;HPM_P2
2023/07/19 00:02:00;;;;;;;5.05;2.20;;;;;;;;;;5023159;28;20061;-64
2023/07/19 00:04:26;;;;;;;4.55;1.70;;;;;;;;;;5023011;28;20029;-64
2023/07/19 00:06:53;;;;;;;4.78;2.10;;;;;;;;;;5023637;28;20025;-64
2023/07/19 00:09:19;;;;;;;5.30;2.00;;;;;;;;;;5023201;28;20029;-64
2023/07/19 00:11:47;;;;;;;4.50;2.03;;;;;;;;;;5023107;28;20041;-64
2023/07/19 00:14:13;;;;;;;6.55;2.53;;;;;;;;;;5023272;28;20576;-64
2023/07/19 00:16:39;;;;;;;3.78;1.80;;;;;;;;;;5023805;28;20373;-64
2023/07/19 00:19:05;;;;;;;4.55;2.00;;;;;;;;;;5023676;28;20674;-64
2023/07/19 00:21:31;;;;;;;4.88;2.13;;;;;;;;;;5022944;28;20029;-64
2023/07/19 00:23:57;;;;;;;8.18;2.00;;;;;;;;;;5023438;28;20063;-64
2023/07/19 00:26:23;;;;;;;8.23;2.05;;;;;;;;;;5021549;28;20034;-64
2023/07/19 00:28:50;;;;;;;4.93;2.47;;;;;;;;;;5023785;28;20080;-64
2023/07/19 00:31:16;;;;;;;6.72;2.60;;;;;;;;;;5021844;28;20044;-64
2023/07/19 00:33:42;;;;;;;4.55;1.73;;;;;;;;;;5021629;28;20037;-64
2023/07/19 00:36:08;;;;;;;5.38;2.10;;;;;;;;;;5022978;28;20029;-64
2023/07/19 00:38:34;;;;;;;3.63;1.95;;;;;;;;;;5023224;28;20040;-64
2023/07/19 00:41:00;;;;;;;6.43;2.05;;;;;;;;;;5023029;28;20445;-64
2023/07/19 00:43:26;;;;;;;4.13;2.00;;;;;;;;;;5022582;28;20036;-64
2023/07/19 00:45:53;;;;;;;5.30;2.15;;;;;;;;;;5023415;28;20083;-64
2023/07/19 00:48:19;;;;;;;4.55;2.00;;;;;;;;;;5022848;28;20036;-64
2023/07/19 00:50:46;;;;;;;7.40;2.10;;;;;;;;;;5023424;28;20078;-64
2023/07/19 00:53:12;;;;;;;5.35;2.30;;;;;;;;;;5022597;28;20029;-64
2023/07/19 00:55:39;;;;;;;3.97;1.80;;;;;;;;;;5023440;28;20044;-64
2023/07/19 00:58:05;;;;;;;5.13;2.35;;;;;;;;;;5023255;28;20037;-64
2023/07/19 01:00:31;;;;;;;4.45;2.20;;;;;;;;;;5022938;28;20771;-64
2023/07/19 01:02:58;;;;;;;4.07;1.98;;;;;;;;;;5023586;28;20037;-64
2023/07/19 01:05:24;;;;;;;6.13;2.40;;;;;;;;;;5022237;28;20029;-64
2023/07/19 01:07:50;;;;;;;6.43;2.30;;;;;;;;;;5021587;28;20036;-64
2023/07/19 01:10:17;;;;;;;6.15;2.40;;;;;;;;;;5021417;28;20067;-64
2023/07/19 01:12:43;;;;;;;7.20;2.30;;;;;;;;;;5026327;28;20046;-64
2023/07/19 01:15:09;;;;;;;5.95;2.33;;;;;;;;;;5025621;28;20021;-64
2023/07/19 01:17:36;;;;;;;5.47;2.40;;;;;;;;;;5025721;28;20055;-64
2023/07/19 01:20:02;;;;;;;7.38;2.30;;;;;;;;;;5026881;28;20021;-64
2023/07/19 01:22:36;;;;;;;4.60;2.20;;;;;;;;;;5026530;28;20119;-65
2023/07/19 01:25:02;;;;;;;9.23;2.38;;;;;;;;;;5026900;28;20104;-64
2023/07/19 01:27:28;;;;;;;6.68;2.47;;;;;;;;;;5027199;28;20044;-64
2023/07/19 01:29:55;;;;;;;4.63;2.50;;;;;;;;;;5025583;28;20077;-64
2023/07/19 01:32:21;;;;;;;5.20;2.22;;;;;;;;;;5027553;28;20472;-64
2023/07/19 01:34:47;;;;;;;7.47;2.65;;;;;;;;;;5027947;28;20033;-64
2023/07/19 01:37:13;;;;;;;4.90;2.55;;;;;;;;;;5027674;28;20048;-64
2023/07/19 01:39:39;;;;;;;10.50;3.00;;;;;;;;;;5027539;28;20036;-64
2023/07/19 01:42:05;;;;;;;6.22;2.78;;;;;;;;;;5026798;28;20041;-64
2023/07/19 01:44:31;;;;;;;7.55;2.75;;;;;;;;;;5026679;28;20049;-64
2023/07/19 01:46:57;;;;;;;5.68;2.47;;;;;;;;;;5025890;28;20140;-64
2023/07/19 01:49:23;;;;;;;8.52;2.55;;;;;;;;;;5026735;28;20072;-64
2023/07/19 01:51:49;;;;;;;5.25;2.60;;;;;;;;;;5024444;28;20041;-64
2023/07/19 01:54:16;;;;;;;6.47;3.05;;;;;;;;;;5026264;28;20048;-64
2023/07/19 01:56:42;;;;;;;6.13;2.70;;;;;;;;;;5026463;28;20037;-64
2023/07/19 01:59:08;;;;;;;5.93;2.88;;;;;;;;;;5025907;28;20037;-64
2023/07/19 02:01:34;;;;;;;8.05;2.65;;;;;;;;;;5026535;28;20040;-64
2023/07/19 02:04:00;;;;;;;5.75;2.25;;;;;;;;;;5025257;28;20025;-64
2023/07/19 02:06:26;;;;;;;6.50;2.80;;;;;;;;;;5025870;28;20025;-64
2023/07/19 02:08:52;;;;;;;4.95;2.40;;;;;;;;;;5025969;28;20036;-64
2023/07/19 02:11:18;;;;;;;8.15;3.88;;;;;;;;;;5025803;28;20029;-64
2023/07/19 02:13:48;;;;;;;5.60;2.42;;;;;;;;;;5025611;28;20140;-64
2023/07/19 02:16:15;;;;;;;5.63;2.70;;;;;;;;;;5026222;28;20041;-64
2023/07/19 02:18:43;;;;;;;7.80;3.33;;;;;;;;;;5024550;28;20064;-64
2023/07/19 02:21:09;;;;;;;6.53;2.65;;;;;;;;;;5026661;28;20056;-64
2023/07/19 02:23:35;;;;;;;4.25;2.42;;;;;;;;;;5025612;28;20041;-64
2023/07/19 02:26:01;;;;;;;7.15;2.70;;;;;;;;;;5025825;28;20045;-64
2023/07/19 02:28:27;;;;;;;7.25;3.55;;;;;;;;;;5024963;28;20048;-64
2023/07/19 02:30:53;;;;;;;6.38;3.15;;;;;;;;;;5026287;28;20037;-64
2023/07/19 02:33:20;;;;;;;6.72;3.45;;;;;;;;;;5025812;28;20112;-64
2023/07/19 02:35:52;;;;;;;6.35;3.50;;;;;;;;;;5026328;28;20597;-64
2023/07/19 02:38:18;;;;;;;6.90;2.78;;;;;;;;;;5024612;28;20064;-64
2023/07/19 02:40:44;;;;;;;7.57;3.50;;;;;;;;;;5025230;28;20103;-64
2023/07/19 02:43:10;;;;;;;5.45;2.90;;;;;;;;;;5023912;28;20033;-64
2023/07/19 02:45:36;;;;;;;5.97;3.25;;;;;;;;;;5024686;28;20091;-64
2023/07/19 02:48:02;;;;;;;5.90;3.13;;;;;;;;;;5025013;28;20040;-64
2023/07/19 02:50:28;;;;;;;8.77;3.38;;;;;;;;;;5025161;28;20473;-64
2023/07/19 02:52:54;;;;;;;6.45;3.20;;;;;;;;;;5024606;28;20086;-64
2023/07/19 02:55:20;;;;;;;7.07;3.47;;;;;;;;;;5025194;28;20042;-64
2023/07/19 02:57:46;;;;;;;7.25;3.25;;;;;;;;;;5025654;28;20025;-64
2023/07/19 03:00:12;;;;;;;7.18;3.65;;;;;;;;;;5025255;28;20068;-64
2023/07/19 03:02:38;;;;;;;6.88;3.28;;;;;;;;;;5024404;28;20139;-64
2023/07/19 03:05:05;;;;;;;8.25;3.92;;;;;;;;;;5025052;28;20148;-64
2023/07/19 03:07:32;;;;;;;8.52;3.40;;;;;;;;;;5024844;28;20068;-64
2023/07/19 03:09:58;;;;;;;6.95;3.08;;;;;;;;;;5024589;28;21838;-64
2023/07/19 03:12:24;;;;;;;6.80;3.40;;;;;;;;;;5024680;28;20029;-64
2023/07/19 03:14:50;;;;;;;6.13;3.22;;;;;;;;;;5023558;28;20040;-64
2023/07/19 03:17:16;;;;;;;7.40;3.88;;;;;;;;;;5024211;28;20091;-64
2023/07/19 03:19:42;;;;;;;7.38;3.53;;;;;;;;;;5023975;28;20036;-64
2023/07/19 03:22:08;;;;;;;7.03;3.47;;;;;;;;;;5024771;28;20276;-64
2023/07/19 03:24:35;;;;;;;8.20;3.25;;;;;;;;;;5024182;28;20548;-64
2023/07/19 03:27:01;;;;;;;8.80;4.22;;;;;;;;;;5025190;28;20048;-64
2023/07/19 03:29:27;;;;;;;8.68;4.25;;;;;;;;;;5023531;28;20034;-64
2023/07/19 03:31:53;;;;;;;8.25;3.80;;;;;;;;;;5024539;28;20059;-64
2023/07/19 03:34:19;;;;;;;5.70;3.67;;;;;;;;;;5024994;28;20484;-64
2023/07/19 03:36:45;;;;;;;8.88;4.25;;;;;;;;;;5024483;28;20040;-64
2023/07/19 03:39:11;;;;;;;8.27;4.50;;;;;;;;;;5024544;28;20072;-64
2023/07/19 03:41:38;;;;;;;8.40;4.05;;;;;;;;;;5023068;28;20048;-64
2023/07/19 03:44:06;;;;;;;7.50;4.30;;;;;;;;;;5024578;28;20037;-64
2023/07/19 03:46:32;;;;;;;6.82;4.05;;;;;;;;;;5022381;28;20036;-64
2023/07/19 03:48:58;;;;;;;11.93;5.13;;;;;;;;;;5024042;28;20034;-64
2023/07/19 03:51:24;;;;;;;6.82;4.20;;;;;;;;;;5024115;28;20029;-64
2023/07/19 03:53:50;;;;;;;6.30;3.60;;;;;;;;;;5030129;28;20045;-64
2023/07/19 03:56:17;;;;;;;9.95;4.70;;;;;;;;;;5024126;28;20056;-64
2023/07/19 03:58:47;;;;;;;8.85;5.22;;;;;;;;;;5023266;28;20120;-64
2023/07/19 04:01:13;;;;;;;7.78;4.43;;;;;;;;;;5024412;28;20029;-64
2023/07/19 04:03:40;;;;;;;9.23;5.03;;;;;;;;;;5023477;28;20728;-64
2023/07/19 04:06:06;;;;;;;7.57;4.55;;;;;;;;;;5023860;28;20123;-64
2023/07/19 04:08:34;;;;;;;8.27;4.38;;;;;;;;;;5022760;28;20241;-64
2023/07/19 04:11:00;;;;;;;7.35;4.28;;;;;;;;;;5023237;28;20052;-64
2023/07/19 04:13:26;;;;;;;9.82;5.18;;;;;;;;;;5023566;28;20045;-64
2023/07/19 04:15:53;;;;;;;8.00;4.88;;;;;;;;;;5023258;28;20048;-64
2023/07/19 04:18:19;;;;;;;7.22;4.55;;;;;;;;;;5023364;28;20071;-64
2023/07/19 04:20:45;;;;;;;7.10;4.65;;;;;;;;;;5023392;28;20056;-64
2023/07/19 04:23:12;;;;;;;7.85;4.88;;;;;;;;;;5024202;28;20045;-64
2023/07/19 04:25:38;;;;;;;8.90;5.13;;;;;;;;;;5023695;28;20064;-64
2023/07/19 04:28:04;;;;;;;10.43;5.00;;;;;;;;;;5023200;28;20030;-64
2023/07/19 04:30:30;;;;;;;8.77;5.20;;;;;;;;;;5022573;28;20112;-64
2023/07/19 04:32:56;;;;;;;13.93;5.45;;;;;;;;;;5022861;28;20061;-64
2023/07/19 04:35:23;;;;;;;9.85;5.30;;;;;;;;;;5022601;28;20042;-64
2023/07/19 04:37:49;;;;;;;8.43;4.63;;;;;;;;;;5019364;28;20905;-64
2023/07/19 04:40:16;;;;;;;7.57;4.60;;;;;;;;;;5021579;28;20033;-64
2023/07/19 04:42:42;;;;;;;9.50;5.03;;;;;;;;;;5023021;28;20068;-64
2023/07/19 04:45:09;;;;;;;7.15;4.15;;;;;;;;;;5023158;28;20021;-64
2023/07/19 04:47:38;;;;;;;7.72;4.25;;;;;;;;;;5022880;28;20534;-64
2023/07/19 04:50:07;;;;;;;7.72;4.80;;;;;;;;;;5023077;28;20029;-64
2023/07/19 04:52:33;;;;;;;7.75;4.80;;;;;;;;;;5021239;28;20093;-64
2023/07/19 04:54:59;;;;;;;8.45;4.82;;;;;;;;;;5022633;28;20149;-64
2023/07/19 04:57:25;;;;;;;7.97;5.10;;;;;;;;;;5022183;28;20029;-64
2023/07/19 04:59:52;;;;;;;8.98;4.28;;;;;;;;;;5023158;28;20084;-64
2023/07/19 05:02:18;;;;;;;7.68;4.43;;;;;;;;;;5022000;28;20044;-65
2023/07/19 05:04:44;;;;;;;7.35;4.40;;;;;;;;;;5020407;28;20128;-64
2023/07/19 05:07:10;;;;;;;8.20;4.32;;;;;;;;;;5020822;28;20044;-65
2023/07/19 05:09:36;;;;;;;6.85;4.05;;;;;;;;;;5022612;28;20037;-65
2023/07/19 05:12:02;;;;;;;6.18;3.30;;;;;;;;;;5021620;28;20025;-65
2023/07/19 05:14:29;;;;;;;7.10;3.60;;;;;;;;;;5021034;28;20136;-65
2023/07/19 05:16:55;;;;;;;9.25;3.40;;;;;;;;;;5022603;28;20032;-65
2023/07/19 05:19:21;;;;;;;7.78;3.92;;;;;;;;;;5022821;28;20041;-65
2023/07/19 05:21:47;;;;;;;7.63;3.50;;;;;;;;;;5022266;28;20079;-65
2023/07/19 05:24:13;;;;;;;8.23;3.95;;;;;;;;;;5020471;28;20057;-65
2023/07/19 05:26:39;;;;;;;8.57;3.90;;;;;;;;;;5021884;28;20539;-65
2023/07/19 05:29:06;;;;;;;7.75;3.78;;;;;;;;;;5022674;28;20166;-65
2023/07/19 05:31:35;;;;;;;6.18;3.40;;;;;;;;;;5023158;28;20025;-65
2023/07/19 05:34:01;;;;;;;6.50;3.85;;;;;;;;;;5022728;28;20033;-62
2023/07/19 05:36:27;;;;;;;8.18;4.03;;;;;;;;;;5023111;28;20601;-62
2023/07/19 05:38:53;;;;;;;8.73;4.15;;;;;;;;;;5023036;28;20493;-62
2023/07/19 05:41:19;;;;;;;6.45;3.92;;;;;;;;;;5023304;28;20074;-62
2023/07/19 05:43:45;;;;;;;7.97;3.72;;;;;;;;;;5023106;28;20061;-62
2023/07/19 05:46:11;;;;;;;7.97;4.43;;;;;;;;;;5022813;28;20633;-62
2023/07/19 05:48:38;;;;;;;7.75;4.68;;;;;;;;;;5022615;28;21536;-62
2023/07/19 05:51:05;;;;;;;7.90;3.90;;;;;;;;;;5023348;28;20032;-63
2023/07/19 05:53:31;;;;;;;8.50;3.75;;;;;;;;;;5022337;28;20550;-62
2023/07/19 05:55:57;;;;;;;7.85;3.75;;;;;;;;;;5023079;28;20040;-62
2023/07/19 05:58:23;;;;;;;7.25;3.95;;;;;;;;;;5023699;28;20039;-62
2023/07/19 06:00:49;;;;;;;12.02;4.07;;;;;;;;;;5026119;28;20044;-62
2023/07/19 06:03:16;;;;;;;10.93;4.57;;;;;;;;;;5029879;28;21114;-62
2023/07/19 06:05:45;;;;;;;7.07;3.65;;;;;;;;;;5026644;28;20095;-62
2023/07/19 06:08:12;;;;;;;7.20;3.65;;;;;;;;;;5026554;28;20056;-62
2023/07/19 06:10:38;;;;;;;6.55;3.50;;;;;;;;;;5026615;28;20029;-63
2023/07/19 06:13:04;;;;;;;7.40;3.10;;;;;;;;;;5026485;28;20033;-62
2023/07/19 06:15:34;;;;;;;6.55;3.00;;;;;;;;;;5027084;28;20033;-62
2023/07/19 06:18:00;;;;;;;10.55;2.88;;;;;;;;;;5026416;28;21498;-63
2023/07/19 06:20:27;;;;;;;7.22;2.90;;;;;;;;;;5026013;28;20492;-62
2023/07/19 06:22:53;;;;;;;6.03;2.78;;;;;;;;;;5025898;28;20670;-62
2023/07/19 06:25:19;;;;;;;5.68;2.30;;;;;;;;;;5026145;28;20188;-62
2023/07/19 06:27:45;;;;;;;6.97;2.10;;;;;;;;;;5026291;28;20036;-62
2023/07/19 06:30:11;;;;;;;5.50;2.15;;;;;;;;;;5027044;28;20041;-62
2023/07/19 06:32:38;;;;;;;5.68;2.03;;;;;;;;;;5025802;28;20087;-62
2023/07/19 06:35:05;;;;;;;6.95;1.98;;;;;;;;;;5026443;28;20066;-62
2023/07/19 06:37:32;;;;;;;7.32;2.30;;;;;;;;;;5026435;28;20125;-62
2023/07/19 06:40:01;;;;;;;6.38;2.35;;;;;;;;;;5025258;28;20122;-62
2023/07/19 06:42:27;;;;;;;5.55;2.08;;;;;;;;;;5025723;28;21155;-62
2023/07/19 06:44:53;;;;;;;6.32;1.77;;;;;;;;;;5023874;28;20045;-62
2023/07/19 06:47:19;;;;;;;5.00;2.10;;;;;;;;;;5026360;28;20029;-62
2023/07/19 06:49:45;;;;;;;7.63;2.33;;;;;;;;;;5025499;28;20029;-62
2023/07/19 06:52:11;;;;;;;5.60;2.13;;;;;;;;;;5024621;28;20656;-62
2023/07/19 06:54:38;;;;;;;6.65;2.15;;;;;;;;;;5024819;28;20036;-62
2023/07/19 06:57:04;;;;;;;6.15;2.22;;;;;;;;;;5025399;28;20109;-62
2023/07/19 06:59:30;;;;;;;5.88;2.42;;;;;;;;;;5025809;28;20477;-62
2023/07/19 07:01:56;;;;;;;7.78;2.63;;;;;;;;;;5024970;28;20060;-62
2023/07/19 07:04:23;;;;;;;9.13;3.22;;;;;;;;;;5026122;28;20770;-62
2023/07/19 07:06:50;;;;;;;5.30;2.08;;;;;;;;;;5025532;28;20033;-62
2023/07/19 07:09:16;;;;;;;8.35;2.42;;;;;;;;;;5025184;28;20032;-62
2023/07/19 07:11:42;;;;;;;6.57;2.03;;;;;;;;;;5024414;28;20040;-62
2023/07/19 07:14:08;;;;;;;4.72;2.10;;;;;;;;;;5024526;28;20033;-63
2023/07/19 07:16:35;;;;;;;6.28;1.90;;;;;;;;;;5025149;28;20571;-63
2023/07/19 07:19:02;;;;;;;6.13;2.17;;;;;;;;;;5025081;28;20029;-62
2023/07/19 07:21:31;;;;;;;4.05;1.38;;;;;;;;;;5025354;28;20151;-62
2023/07/19 07:23:57;;;;;;;16.60;2.25;;;;;;;;;;5024548;28;20041;-62
2023/07/19 07:26:23;;;;;;;4.95;1.77;;;;;;;;;;5024847;28;20842;-62
2023/07/19 07:28:49;;;;;;;8.50;1.90;;;;;;;;;;5025385;28;20044;-62
2023/07/19 07:31:15;;;;;;;5.28;1.55;;;;;;;;;;5024929;28;20037;-62
2023/07/19 07:33:41;;;;;;;7.60;1.80;;;;;;;;;;5025565;28;20032;-62
2023/07/19 07:36:07;;;;;;;6.30;1.90;;;;;;;;;;5024738;28;20067;-62
2023/07/19 07:38:34;;;;;;;5.10;1.85;;;;;;;;;;5024763;28;20052;-62
2023/07/19 07:41:11;;;;;;;8.25;1.75;;;;;;;;;;5025140;28;21938;-62
2023/07/19 07:43:38;;;;;;;7.15;2.25;;;;;;;;;;5024947;28;20730;-62
2023/07/19 07:46:04;;;;;;;4.72;1.50;;;;;;;;;;5025556;28;20025;-63
2023/07/19 07:48:30;;;;;;;5.32;1.90;;;;;;;;;;5024790;28;20029;-62
2023/07/19 07:50:56;;;;;;;6.45;1.60;;;;;;;;;;5024615;28;20033;-62
2023/07/19 07:53:22;;;;;;;4.97;1.80;;;;;;;;;;5024735;28;20068;-62
2023/07/19 07:55:49;;;;;;;4.40;1.60;;;;;;;;;;5025553;28;20029;-62
2023/07/19 07:58:16;;;;;;;5.10;1.45;;;;;;;;;;5024343;28;20753;-62
2023/07/19 08:00:42;;;;;;;6.72;1.65;;;;;;;;;;5024761;28;20047;-62
2023/07/19 08:03:11;;;;;;;3.85;1.60;;;;;;;;;;5023961;28;20443;-62
2023/07/19 08:05:40;;;;;;;7.32;1.92;;;;;;;;;;5029377;28;20052;-62
2023/07/19 08:08:07;;;;;;;7.55;2.00;;;;;;;;;;5024656;28;20028;-62
2023/07/19 08:10:33;;;;;;;6.05;1.73;;;;;;;;;;5023999;28;20116;-62
2023/07/19 08:12:59;;;;;;;3.75;1.42;;;;;;;;;;5024794;28;20028;-62
2023/07/19 08:15:26;;;;;;;5.03;1.90;;;;;;;;;;5024194;28;20040;-62
2023/07/19 08:17:52;;;;;;;4.65;1.40;;;;;;;;;;5024691;28;20041;-62
2023/07/19 08:20:19;;;;;;;4.55;1.63;;;;;;;;;;5023609;28;20029;-62
2023/07/19 08:22:45;;;;;;;4.03;1.13;;;;;;;;;;5024224;28;21980;-62
2023/07/19 08:25:11;;;;;;;5.57;1.50;;;;;;;;;;5024206;28;20523;-62
2023/07/19 08:27:37;;;;;;;4.85;1.17;;;;;;;;;;5022983;28;20041;-62
2023/07/19 08:30:09;;;;;;;5.90;1.42;;;;;;;;;;5023192;28;20059;-62
2023/07/19 08:32:35;;;;;;;5.93;1.67;;;;;;;;;;5024552;28;20481;-62
2023/07/19 08:35:01;;;;;;;4.57;1.50;;;;;;;;;;5023793;28;20037;-63
2023/07/19 08:37:27;;;;;;;5.35;1.70;;;;;;;;;;5024592;28;20041;-62
2023/07/19 08:39:53;;;;;;;6.65;1.70;;;;;;;;;;5024446;28;20072;-63
2023/07/19 08:42:19;;;;;;;4.85;1.50;;;;;;;;;;5024768;28;20040;-62
2023/07/19 08:44:47;;;;;;;5.53;1.00;;;;;;;;;;5023742;28;20033;-63
2023/07/19 08:47:13;;;;;;;3.88;1.27;;;;;;;;;;5030536;28;20052;-62
2023/07/19 08:49:40;;;;;;;5.07;1.20;;;;;;;;;;5024341;28;20031;-62
2023/07/19 08:52:09;;;;;;;4.47;1.60;;;;;;;;;;5024495;28;20052;-63
2023/07/19 08:54:35;;;;;;;5.38;1.30;;;;;;;;;;5024260;28;20041;-63
2023/07/19 08:57:04;;;;;;;3.70;1.00;;;;;;;;;;5023153;28;20041;-62
2023/07/19 08:59:31;;;;;;;5.43;1.17;;;;;;;;;;5028822;28;20029;-63
2023/07/19 09:01:57;;;;;;;5.53;1.50;;;;;;;;;;5023707;28;20087;-63
2023/07/19 09:04:23;;;;;;;3.78;1.10;;;;;;;;;;5023783;28;20080;-62
2023/07/19 09:06:49;;;;;;;5.00;1.63;;;;;;;;;;5022810;28;20017;-62
2023/07/19 09:09:17;;;;;;;5.95;1.58;;;;;;;;;;5023055;28;20029;-62
2023/07/19 09:11:48;;;;;;;5.93;1.58;;;;;;;;;;5024222;28;20554;-63
2023/07/19 09:14:15;;;;;;;5.00;1.38;;;;;;;;;;5024074;28;20537;-62
2023/07/19 09:16:41;;;;;;;4.85;1.50;;;;;;;;;;5023870;28;20922;-62
2023/07/19 09:19:08;;;;;;;9.68;2.17;;;;;;;;;;5024317;28;20036;-63
2023/07/19 09:21:44;;;;;;;4.82;1.23;;;;;;;;;;5024558;28;20477;-62
2023/07/19 09:24:11;;;;;;;5.28;1.17;;;;;;;;;;5023550;28;20060;-63
2023/07/19 09:26:44;;;;;;;4.97;1.42;;;;;;;;;;5023924;28;20388;-62
2023/07/19 09:29:11;;;;;;;4.50;1.30;;;;;;;;;;5022326;28;20038;-62
2023/07/19 09:31:53;;;;;;;4.70;1.40;;;;;;;;;;5024247;28;20036;-62
2023/07/19 09:34:19;;;;;;;5.10;1.27;;;;;;;;;;5026708;28;20363;-62
2023/07/19 09:36:46;;;;;;;4.82;1.10;;;;;;;;;;5026854;28;20041;-62
2023/07/19 09:39:12;;;;;;;3.72;1.50;;;;;;;;;;5025861;28;20056;-63
2023/07/19 09:41:39;;;;;;;3.92;1.38;;;;;;;;;;5027080;28;20045;-62
2023/07/19 09:44:09;;;;;;;5.57;1.52;;;;;;;;;;5025873;28;20037;-62
2023/07/19 09:46:36;;;;;;;4.18;1.42;;;;;;;;;;5025816;28;20043;-62
2023/07/19 09:49:03;;;;;;;6.00;2.15;;;;;;;;;;5026766;28;20060;-62
2023/07/19 09:51:31;;;;;;;4.40;1.40;;;;;;;;;;5026555;28;22190;-62
2023/07/19 09:54:01;;;;;;;7.00;1.45;;;;;;;;;;5026835;28;20456;-62
2023/07/19 09:56:28;;;;;;;3.25;1.05;;;;;;;;;;5026148;28;20033;-62
2023/07/19 09:58:54;;;;;;;4.40;1.27;;;;;;;;;;5032025;28;20155;-62
2023/07/19 10:01:22;;;;;;;6.50;1.27;;;;;;;;;;5026118;28;20630;-62
2023/07/19 10:03:48;;;;;;;4.75;1.40;;;;;;;;;;5026666;28;20145;-62
2023/07/19 10:06:14;;;;;;;7.10;1.63;;;;;;;;;;5027039;28;20058;-63
2023/07/19 10:08:41;;;;;;;2.63;1.00;;;;;;;;;;5025277;28;20497;-62
2023/07/19 10:11:07;;;;;;;4.85;1.70;;;;;;;;;;5027631;28;20017;-62
2023/07/19 10:13:51;;;;;;;4.00;1.20;;;;;;;;;;5026904;28;20037;-62
2023/07/19 10:16:24;;;;;;;3.63;0.93;;;;;;;;;;5026082;28;20148;-63
2023/07/19 10:19:10;;;;;;;2.88;1.02;;;;;;;;;;5026911;28;20033;-62
2023/07/19 10:21:36;;;;;;;4.15;1.00;;;;;;;;;;5026068;28;20045;-63
2023/07/19 10:24:14;;;;;;;3.85;0.98;;;;;;;;;;5026193;28;20492;-62
2023/07/19 10:26:41;;;;;;;2.75;0.88;;;;;;;;;;5025610;28;20017;-62
2023/07/19 10:29:07;;;;;;;3.47;1.00;;;;;;;;;;5025481;28;20033;-63
2023/07/19 10:31:33;;;;;;;6.05;1.05;;;;;;;;;;5025733;28;20048;-63
2023/07/19 10:33:59;;;;;;;2.25;0.90;;;;;;;;;;5026073;28;20071;-62
2023/07/19 10:36:25;;;;;;;3.63;1.08;;;;;;;;;;5023227;28;20040;-62
2023/07/19 10:38:51;;;;;;;2.28;0.82;;;;;;;;;;5025554;28;20230;-63
2023/07/19 10:41:19;;;;;;;5.15;1.02;;;;;;;;;;5024586;28;20152;-62
2023/07/19 10:43:46;;;;;;;5.40;1.27;;;;;;;;;;5024511;28;20025;-62
2023/07/19 10:46:12;;;;;;;3.42;1.08;;;;;;;;;;5025162;28;20030;-62
2023/07/19 10:48:38;;;;;;;2.38;0.90;;;;;;;;;;5025339;28;20025;-62
2023/07/19 10:51:06;;;;;;;5.07;1.38;;;;;;;;;;5031369;28;20064;-62
2023/07/19 10:53:41;;;;;;;1.67;0.65;;;;;;;;;;5025672;28;20575;-63
2023/07/19 10:56:07;;;;;;;3.25;0.98;;;;;;;;;;5030396;28;20027;-62
2023/07/19 10:58:33;;;;;;;4.70;1.10;;;;;;;;;;5025443;28;20199;-63
2023/07/19 11:00:59;;;;;;;1.58;0.70;;;;;;;;;;5023416;28;20037;-62
2023/07/19 11:03:26;;;;;;;2.13;0.80;;;;;;;;;;5023846;28;20038;-63
2023/07/19 11:05:53;;;;;;;2.85;1.00;;;;;;;;;;5023590;28;20116;-62
2023/07/19 11:08:20;;;;;;;6.50;1.55;;;;;;;;;;5024775;28;20574;-62
2023/07/19 11:10:46;;;;;;;4.28;0.80;;;;;;;;;;5024788;28;20017;-62
2023/07/19 11:13:13;;;;;;;4.85;1.75;;;;;;;;;;5024915;28;20052;-63
2023/07/19 11:15:42;;;;;;;3.90;0.95;;;;;;;;;;5022544;28;20029;-62
2023/07/19 11:18:08;;;;;;;3.08;0.93;;;;;;;;;;5024331;28;20025;-62
2023/07/19 11:20:39;;;;;;;3.03;0.90;;;;;;;;;;5025344;28;20042;-62
2023/07/19 11:23:07;;;;;;;3.15;0.90;;;;;;;;;;5025122;28;20033;-62
2023/07/19 11:25:33;;;;;;;2.90;0.80;;;;;;;;;;5024221;28;20048;-62
2023/07/19 11:28:00;;;;;;;3.97;0.82;;;;;;;;;;5024920;28;20083;-62
2023/07/19 11:30:35;;;;;;;4.55;1.67;;;;;;;;;;5024726;28;20044;-62
2023/07/19 11:33:06;;;;;;;2.42;0.63;;;;;;;;;;5025121;28;20040;-62
2023/07/19 11:35:32;;;;;;;3.53;0.85;;;;;;;;;;5024719;28;20741;-62
2023/07/19 11:37:58;;;;;;;1.52;0.68;;;;;;;;;;5024235;28;20496;-62
2023/07/19 11:40:25;;;;;;;2.28;0.75;;;;;;;;;;5025244;28;20955;-62
2023/07/19 11:42:54;;;;;;;3.47;0.77;;;;;;;;;;5024694;28;20025;-62
2023/07/19 11:45:23;;;;;;;2.95;0.65;;;;;;;;;;5024384;28;20152;-63
2023/07/19 11:47:50;;;;;;;2.40;0.93;;;;;;;;;;5024643;28;20025;-63
2023/07/19 11:50:16;;;;;;;3.38;0.85;;;;;;;;;;5025016;28;20033;-63
2023/07/19 11:53:03;;;;;;;2.85;1.05;;;;;;;;;;5030674;28;20033;-62
2023/07/19 11:55:30;;;;;;;2.92;0.70;;;;;;;;;;5024863;28;20038;-63
2023/07/19 11:58:03;;;;;;;4.18;0.93;;;;;;;;;;5024056;28;20162;-63
2023/07/19 12:00:30;;;;;;;2.15;0.70;;;;;;;;;;5024474;28;20140;-63
2023/07/19 12:02:56;;;;;;;2.72;1.05;;;;;;;;;;5024674;28;20029;-63
2023/07/19 12:05:26;;;;;;;2.83;0.93;;;;;;;;;;5024639;28;20025;-63
2023/07/19 12:07:54;;;;;;;2.97;0.80;;;;;;;;;;5023936;28;20029;-63
2023/07/19 12:10:21;;;;;;;2.03;0.73;;;;;;;;;;5023675;28;20040;-63
2023/07/19 12:12:50;;;;;;;3.25;0.68;;;;;;;;;;5029672;28;20388;-63
2023/07/19 12:15:16;;;;;;;3.28;0.88;;;;;;;;;;5022605;28;20064;-62
2023/07/19 12:17:43;;;;;;;2.58;0.82;;;;;;;;;;5023180;28;20049;-63
2023/07/19 12:20:09;;;;;;;3.38;0.90;;;;;;;;;;5024060;28;20032;-62
2023/07/19 12:22:36;;;;;;;3.30;0.70;;;;;;;;;;5023821;28;20055;-63
2023/07/19 12:25:04;;;;;;;4.40;1.00;;;;;;;;;;5023253;28;20680;-62
2023/07/19 12:27:30;;;;;;;2.45;0.60;;;;;;;;;;5023069;28;21912;-63
2023/07/19 12:29:58;;;;;;;2.53;0.80;;;;;;;;;;5024472;28;20083;-63
2023/07/19 12:32:24;;;;;;;1.40;0.70;;;;;;;;;;5024255;28;20321;-63
2023/07/19 12:34:50;;;;;;;3.67;0.77;;;;;;;;;;5024017;28;20068;-62
2023/07/19 12:37:16;;;;;;;1.98;0.82;;;;;;;;;;5023778;28;20567;-63
2023/07/19 12:39:42;;;;;;;3.53;0.80;;;;;;;;;;5024053;28;20064;-62
2023/07/19 12:42:09;;;;;;;2.55;0.70;;;;;;;;;;5023379;28;21815;-63
2023/07/19 12:44:36;;;;;;;3.67;0.82;;;;;;;;;;5024482;28;20060;-63
2023/07/19 12:47:02;;;;;;;1.75;0.50;;;;;;;;;;5023642;28;20063;-62
2023/07/19 12:49:29;;;;;;;1.90;0.80;;;;;;;;;;5023519;28;20025;-63
2023/07/19 12:51:55;;;;;;;2.97;1.00;;;;;;;;;;5022280;28;20381;-62
2023/07/19 12:54:21;;;;;;;2.20;0.75;;;;;;;;;;5024019;28;20116;-62
2023/07/19 12:56:47;;;;;;;2.22;0.70;;;;;;;;;;5023345;28;20052;-63
2023/07/19 12:59:13;;;;;;;2.05;0.63;;;;;;;;;;5022201;28;20037;-63
2023/07/19 13:01:39;;;;;;;2.17;0.60;;;;;;;;;;5022160;28;20409;-63
2023/07/19 13:04:06;;;;;;;1.88;0.52;;;;;;;;;;5023388;28;20431;-62
2023/07/19 13:06:35;;;;;;;2.95;0.60;;;;;;;;;;5023580;28;20800;-63
2023/07/19 13:09:06;;;;;;;3.38;0.80;;;;;;;;;;5027500;28;20207;-62
2023/07/19 13:11:36;;;;;;;1.25;0.50;;;;;;;;;;5027254;28;20025;-63
2023/07/19 13:14:03;;;;;;;1.90;0.70;;;;;;;;;;5027431;28;20033;-63
2023/07/19 13:16:30;;;;;;;1.17;0.60;;;;;;;;;;5026581;28;20064;-63
2023/07/19 13:18:56;;;;;;;1.92;0.60;;;;;;;;;;5027155;28;20416;-63
2023/07/19 13:21:22;;;;;;;2.83;0.65;;;;;;;;;;5027531;28;20076;-62
2023/07/19 13:23:48;;;;;;;1.58;0.50;;;;;;;;;;5026877;28;20131;-63
2023/07/19 13:26:14;;;;;;;3.25;0.85;;;;;;;;;;5027288;28;21912;-63
2023/07/19 13:28:40;;;;;;;3.70;0.98;;;;;;;;;;5027421;28;20073;-63
2023/07/19 13:31:07;;;;;;;1.30;0.63;;;;;;;;;;5027019;28;20036;-63
2023/07/19 13:33:33;;;;;;;3.25;0.60;;;;;;;;;;5027530;28;20029;-63
2023/07/19 13:35:59;;;;;;;3.00;0.88;;;;;;;;;;5025756;28;20037;-62
2023/07/19 13:38:27;;;;;;;1.50;0.80;;;;;;;;;;5025816;28;20556;-63
2023/07/19 13:40:53;;;;;;;2.42;0.43;;;;;;;;;;5026715;28;20032;-63
2023/07/19 13:43:19;;;;;;;1.88;0.73;;;;;;;;;;5024966;28;20113;-63
2023/07/19 13:45:46;;;;;;;2.80;1.10;;;;;;;;;;5026968;28;20025;-63
2023/07/19 13:48:12;;;;;;;4.45;0.77;;;;;;;;;;5026558;28;20198;-63
2023/07/19 13:50:38;;;;;;;2.30;0.60;;;;;;;;;;5026430;28;20029;-63
2023/07/19 13:53:04;;;;;;;2.28;0.60;;;;;;;;;;5025878;28;20025;-62
2023/07/19 13:55:31;;;;;;;1.33;0.55;;;;;;;;;;5027017;28;20041;-63
2023/07/19 13:57:57;;;;;;;1.27;0.50;;;;;;;;;;5025970;28;20064;-63
2023/07/19 14:00:24;;;;;;;2.85;0.60;;;;;;;;;;5025759;28;20050;-63
2023/07/19 14:02:50;;;;;;;3.05;0.70;;;;;;;;;;5025572;28;20032;-63
2023/07/19 14:05:17;;;;;;;2.20;0.70;;;;;;;;;;5025507;28;20071;-63
2023/07/19 14:07:43;;;;;;;2.15;0.40;;;;;;;;;;5026779;28;20033;-63
2023/07/19 14:10:09;;;;;;;2.58;0.60;;;;;;;;;;5026707;28;20029;-63
2023/07/19 14:12:37;;;;;;;1.88;0.50;;;;;;;;;;5026487;28;20507;-62
2023/07/19 14:15:04;;;;;;;2.42;0.60;;;;;;;;;;5026520;28;20021;-63
2023/07/19 14:17:30;;;;;;;1.77;0.45;;;;;;;;;;5024906;28;20087;-63
2023/07/19 14:19:56;;;;;;;2.00;0.40;;;;;;;;;;5025857;28;20034;-63
2023/07/19 14:22:22;;;;;;;1.35;0.40;;;;;;;;;;5024992;28;20159;-63
2023/07/19 14:24:51;;;;;;;1.20;0.30;;;;;;;;;;5025811;28;20033;-63
2023/07/19 14:27:18;;;;;;;1.80;0.50;;;;;;;;;;5026283;28;20043;-63
2023/07/19 14:29:44;;;;;;;3.03;0.40;;;;;;;;;;5026170;28;20056;-62
2023/07/19 14:32:10;;;;;;;1.75;0.40;;;;;;;;;;5025474;28;20037;-63
2023/07/19 14:34:39;;;;;;;2.25;0.55;;;;;;;;;;5025770;28;20033;-63
2023/07/19 14:37:05;;;;;;;1.10;0.60;;;;;;;;;;5025806;28;20112;-63
2023/07/19 14:39:31;;;;;;;1.25;0.50;;;;;;;;;;5025077;28;20282;-62
2023/07/19 14:41:58;;;;;;;1.02;0.40;;;;;;;;;;5024692;28;20496;-63